Time;durP1;ratioP1;P1;durP2;ratioP2;P2;SDS_P1;SDS_P2;PMS_P1;PMS_P2;Temp;Humidity;BMP_temperature;BMP_pressure;BME280_temperature;BME280_humidity;BME280_pressure;Samples;Min_cycle;Max_cycle;Signal;HPM_P1;HPM_P2
2023/12/26 00:00:30;;;;;;;1.70;1.60;;;;;;;;;;5032110;28;20655;-60
2023/12/26 00:02:57;;;;;;;2.23;1.70;;;;;;;;;;5030525;28;20169;-60
2023/12/26 00:05:23;;;;;;;1.93;1.70;;;;;;;;;;5031853;28;20182;-60
2023/12/26 00:07:50;;;;;;;1.80;1.70;;;;;;;;;;5030156;28;20190;-59
2023/12/26 00:10:16;;;;;;;1.70;1.60;;;;;;;;;;5031613;28;20181;-59
2023/12/26 00:12:42;;;;;;;1.70;1.60;;;;;;;;;;5026429;28;20250;-60
2023/12/26 00:15:09;;;;;;;1.70;1.60;;;;;;;;;;5032529;28;20182;-60
2023/12/26 00:17:35;;;;;;;2.53;1.70;;;;;;;;;;5020624;28;20333;-59
2023/12/26 00:20:02;;;;;;;1.60;1.50;;;;;;;;;;5023557;28;20260;-60
2023/12/26 00:22:28;;;;;;;1.90;1.80;;;;;;;;;;5031379;28;20182;-60
2023/12/26 00:24:54;;;;;;;1.80;1.60;;;;;;;;;;5031996;28;20688;-60
2023/12/26 00:27:20;;;;;;;1.43;1.33;;;;;;;;;;5030877;28;20190;-60
2023/12/26 00:29:46;;;;;;;1.83;1.53;;;;;;;;;;5037681;28;20176;-60
2023/12/26 00:32:12;;;;;;;1.83;1.73;;;;;;;;;;5042312;28;20370;-61
2023/12/26 00:34:38;;;;;;;3.30;1.87;;;;;;;;;;5036633;28;20260;-61
2023/12/26 00:37:04;;;;;;;1.57;1.47;;;;;;;;;;5032557;28;20212;-61
2023/12/26 00:39:30;;;;;;;1.53;1.43;;;;;;;;;;5012713;28;20162;-60
2023/12/26 00:41:56;;;;;;;1.70;1.60;;;;;;;;;;5024501;28;20645;-60
2023/12/26 00:44:22;;;;;;;1.70;1.60;;;;;;;;;;5035301;28;20230;-61
2023/12/26 00:46:48;;;;;;;2.10;1.30;;;;;;;;;;5029925;28;20724;-60
2023/12/26 00:49:14;;;;;;;1.60;1.50;;;;;;;;;;5031440;28;20660;-60
2023/12/26 00:51:40;;;;;;;1.60;1.50;;;;;;;;;;5031615;28;20180;-58
2023/12/26 00:54:06;;;;;;;1.73;1.63;;;;;;;;;;5031300;28;20187;-58
2023/12/26 00:56:32;;;;;;;1.60;1.50;;;;;;;;;;5029849;28;20316;-60
2023/12/26 00:58:58;;;;;;;1.50;1.40;;;;;;;;;;5030283;28;20200;-57
2023/12/26 01:01:24;;;;;;;1.20;1.20;;;;;;;;;;5031258;28;20619;-57
2023/12/26 01:03:51;;;;;;;1.70;1.50;;;;;;;;;;5031287;28;20673;-57
2023/12/26 01:06:17;;;;;;;1.40;1.30;;;;;;;;;;5031716;28;20633;-57
2023/12/26 01:08:43;;;;;;;2.37;1.60;;;;;;;;;;5031024;28;20197;-56
2023/12/26 01:11:09;;;;;;;1.40;1.30;;;;;;;;;;5036513;28;20181;-56
2023/12/26 01:13:35;;;;;;;1.90;1.30;;;;;;;;;;5028039;28;20721;-57
2023/12/26 01:16:05;;;;;;;1.33;1.23;;;;;;;;;;5027618;28;20724;-57
2023/12/26 01:18:32;;;;;;;1.77;1.30;;;;;;;;;;5031863;28;20238;-58
2023/12/26 01:20:58;;;;;;;1.30;1.20;;;;;;;;;;5031246;28;20177;-57
2023/12/26 01:23:24;;;;;;;2.50;1.40;;;;;;;;;;5018244;28;20214;-56
2023/12/26 01:25:51;;;;;;;1.13;1.10;;;;;;;;;;5022303;28;20196;-56
2023/12/26 01:28:17;;;;;;;1.70;1.40;;;;;;;;;;5030067;28;20186;-57
2023/12/26 01:30:43;;;;;;;1.40;1.30;;;;;;;;;;5030612;28;20173;-56
2023/12/26 01:33:09;;;;;;;2.00;1.23;;;;;;;;;;5030769;28;20656;-58
2023/12/26 01:35:36;;;;;;;2.37;1.30;;;;;;;;;;5031212;28;20188;-57
2023/12/26 01:38:02;;;;;;;1.30;1.20;;;;;;;;;;5031461;28;20201;-56
2023/12/26 01:40:28;;;;;;;2.17;1.60;;;;;;;;;;5029176;28;20277;-56
2023/12/26 01:42:54;;;;;;;1.30;1.20;;;;;;;;;;5031042;28;20189;-56
2023/12/26 01:45:20;;;;;;;1.37;1.27;;;;;;;;;;5029864;28;20589;-56
2023/12/26 01:47:48;;;;;;;1.50;1.40;;;;;;;;;;5024260;28;20661;-57
2023/12/26 01:50:14;;;;;;;1.40;1.30;;;;;;;;;;5030093;28;20521;-56
2023/12/26 01:52:40;;;;;;;1.43;1.23;;;;;;;;;;5028953;28;20692;-56
2023/12/26 01:55:07;;;;;;;5.10;1.33;;;;;;;;;;5029947;28;20674;-56
2023/12/26 01:57:35;;;;;;;1.53;1.43;;;;;;;;;;5040343;28;20205;-56
2023/12/26 02:00:03;;;;;;;1.33;1.23;;;;;;;;;;5029572;28;20188;-56
2023/12/26 02:02:30;;;;;;;1.83;1.27;;;;;;;;;;5029232;28;20178;-57
2023/12/26 02:04:56;;;;;;;3.37;1.40;;;;;;;;;;5030079;28;20220;-56
2023/12/26 02:07:22;;;;;;;3.43;1.40;;;;;;;;;;5029869;28;20461;-57
2023/12/26 02:09:48;;;;;;;1.30;1.20;;;;;;;;;;5027330;28;20174;-57
2023/12/26 02:12:16;;;;;;;1.40;1.33;;;;;;;;;;5029664;28;20193;-56
2023/12/26 02:14:42;;;;;;;1.30;1.20;;;;;;;;;;5029244;28;20204;-57
2023/12/26 02:17:10;;;;;;;2.70;1.40;;;;;;;;;;5026867;28;20740;-57
2023/12/26 02:19:42;;;;;;;1.77;1.30;;;;;;;;;;5034388;28;20201;-57
2023/12/26 02:22:08;;;;;;;1.50;1.40;;;;;;;;;;5026559;28;20217;-57
2023/12/26 02:24:34;;;;;;;1.60;1.50;;;;;;;;;;5028237;28;20174;-57
2023/12/26 02:27:01;;;;;;;1.40;1.30;;;;;;;;;;5028692;28;20276;-56
2023/12/26 02:29:27;;;;;;;1.40;1.30;;;;;;;;;;5029095;28;20236;-56
2023/12/26 02:31:54;;;;;;;1.50;1.40;;;;;;;;;;5028771;28;20281;-57
2023/12/26 02:34:21;;;;;;;1.70;1.60;;;;;;;;;;5029184;28;20181;-56
2023/12/26 02:36:48;;;;;;;1.20;1.10;;;;;;;;;;5030136;28;20208;-56
2023/12/26 02:39:14;;;;;;;2.13;1.60;;;;;;;;;;5028548;28;20584;-57
2023/12/26 02:41:40;;;;;;;3.07;2.17;;;;;;;;;;5029343;28;20277;-56
2023/12/26 02:44:07;;;;;;;1.30;1.20;;;;;;;;;;5029475;28;20193;-55
2023/12/26 02:46:34;;;;;;;1.10;1.10;;;;;;;;;;5028592;28;20193;-57
2023/12/26 02:49:00;;;;;;;1.27;1.20;;;;;;;;;;5029850;28;20208;-56
2023/12/26 02:51:26;;;;;;;1.60;1.50;;;;;;;;;;5029492;28;20637;-56
2023/12/26 02:53:52;;;;;;;1.70;1.60;;;;;;;;;;5022297;28;20665;-56
2023/12/26 02:56:18;;;;;;;1.57;1.47;;;;;;;;;;5025850;28;20197;-57
2023/12/26 02:58:44;;;;;;;1.50;1.40;;;;;;;;;;5029233;28;20173;-56
2023/12/26 03:01:10;;;;;;;1.60;1.50;;;;;;;;;;5028041;28;20186;-57
2023/12/26 03:03:36;;;;;;;1.47;1.37;;;;;;;;;;5028852;28;20646;-56
2023/12/26 03:06:02;;;;;;;4.93;1.70;;;;;;;;;;5030563;28;20645;-59
2023/12/26 03:08:28;;;;;;;2.07;1.40;;;;;;;;;;5029982;28;20201;-59
2023/12/26 03:10:54;;;;;;;2.10;1.30;;;;;;;;;;5028631;28;20217;-58
2023/12/26 03:13:20;;;;;;;2.13;1.50;;;;;;;;;;5034373;28;20743;-58
2023/12/26 03:15:46;;;;;;;2.30;1.63;;;;;;;;;;5029153;28;20229;-58
2023/12/26 03:18:12;;;;;;;1.60;1.50;;;;;;;;;;5029138;28;20202;-58
2023/12/26 03:20:38;;;;;;;1.50;1.40;;;;;;;;;;5032869;28;20173;-58
2023/12/26 03:23:04;;;;;;;3.07;1.40;;;;;;;;;;5031966;28;20547;-58
2023/12/26 03:25:30;;;;;;;1.40;1.30;;;;;;;;;;5043820;28;20234;-58
2023/12/26 03:27:56;;;;;;;1.40;1.30;;;;;;;;;;5035766;28;20182;-58
2023/12/26 03:30:22;;;;;;;2.27;1.50;;;;;;;;;;5032319;28;20634;-58
2023/12/26 03:32:48;;;;;;;1.50;1.40;;;;;;;;;;5032355;28;20235;-58
2023/12/26 03:35:14;;;;;;;1.50;1.40;;;;;;;;;;5039999;28;20201;-59
2023/12/26 03:37:40;;;;;;;1.50;1.40;;;;;;;;;;5032180;28;20209;-58
2023/12/26 03:40:07;;;;;;;1.30;1.20;;;;;;;;;;5033098;28;20170;-58
2023/12/26 03:42:33;;;;;;;1.67;1.50;;;;;;;;;;5031212;28;20641;-59
2023/12/26 03:44:59;;;;;;;1.20;1.20;;;;;;;;;;5029816;28;20752;-58
2023/12/26 03:47:25;;;;;;;1.40;1.30;;;;;;;;;;5035559;28;20534;-58
2023/12/26 03:49:52;;;;;;;1.57;1.47;;;;;;;;;;5032176;28;20194;-58
2023/12/26 03:52:18;;;;;;;1.83;1.30;;;;;;;;;;5031849;28;20206;-58
2023/12/26 03:54:44;;;;;;;1.63;1.40;;;;;;;;;;5030050;28;20193;-58
2023/12/26 03:57:10;;;;;;;1.30;1.27;;;;;;;;;;5030672;28;20206;-57
2023/12/26 03:59:36;;;;;;;1.50;1.40;;;;;;;;;;5031655;28;20248;-58
2023/12/26 04:02:02;;;;;;;1.40;1.30;;;;;;;;;;5046493;28;20622;-58
2023/12/26 04:04:28;;;;;;;1.23;1.20;;;;;;;;;;5030653;28;20181;-58
2023/12/26 04:06:54;;;;;;;1.57;1.27;;;;;;;;;;5034434;28;20197;-59
2023/12/26 04:09:20;;;;;;;1.20;1.20;;;;;;;;;;5036083;28;20213;-58
2023/12/26 04:11:47;;;;;;;3.73;1.30;;;;;;;;;;5032508;28;20186;-58
2023/12/26 04:14:13;;;;;;;1.20;1.20;;;;;;;;;;5027665;28;20225;-58
2023/12/26 04:16:39;;;;;;;3.40;3.20;;;;;;;;;;5032201;28;20228;-58
2023/12/26 04:19:05;;;;;;;2.90;1.40;;;;;;;;;;5032410;28;20621;-58
2023/12/26 04:21:31;;;;;;;1.70;1.60;;;;;;;;;;5032058;28;20186;-58
2023/12/26 04:23:57;;;;;;;1.50;1.40;;;;;;;;;;5025708;28;20665;-58
2023/12/26 04:26:23;;;;;;;1.50;1.40;;;;;;;;;;5018558;28;20194;-58
2023/12/26 04:28:49;;;;;;;2.00;1.47;;;;;;;;;;5032979;28;20182;-59
2023/12/26 04:31:15;;;;;;;1.80;1.70;;;;;;;;;;5031132;28;20240;-55
2023/12/26 04:33:41;;;;;;;1.60;1.50;;;;;;;;;;5024395;28;20560;-55
2023/12/26 04:36:07;;;;;;;1.77;1.60;;;;;;;;;;5031460;28;20106;-56
2023/12/26 04:38:33;;;;;;;1.60;1.50;;;;;;;;;;5029786;28;20213;-56
2023/12/26 04:40:59;;;;;;;1.87;1.77;;;;;;;;;;5031591;28;20170;-59
2023/12/26 04:43:25;;;;;;;3.47;2.40;;;;;;;;;;5036337;28;20174;-59
2023/12/26 04:45:52;;;;;;;2.60;2.40;;;;;;;;;;5030835;28;20553;-59
2023/12/26 04:48:18;;;;;;;3.40;2.27;;;;;;;;;;5031660;28;20243;-60
2023/12/26 04:50:44;;;;;;;2.37;2.00;;;;;;;;;;5031929;28;20170;-56
2023/12/26 04:53:11;;;;;;;1.90;1.80;;;;;;;;;;5030094;28;20205;-57
2023/12/26 04:55:37;;;;;;;2.40;1.87;;;;;;;;;;5031451;28;20186;-56
2023/12/26 04:58:03;;;;;;;2.00;1.90;;;;;;;;;;5032064;28;20206;-56
2023/12/26 05:00:29;;;;;;;3.53;3.23;;;;;;;;;;5030798;28;20204;-58
2023/12/26 05:02:55;;;;;;;4.17;2.30;;;;;;;;;;5028824;28;20182;-56
2023/12/26 05:05:21;;;;;;;3.87;3.13;;;;;;;;;;5031335;28;20181;-56
2023/12/26 05:07:47;;;;;;;2.70;2.33;;;;;;;;;;5030543;28;20175;-56
2023/12/26 05:10:14;;;;;;;4.70;3.30;;;;;;;;;;5030916;28;20190;-57
2023/12/26 05:12:40;;;;;;;3.07;2.03;;;;;;;;;;5022473;28;20226;-57
2023/12/26 05:15:06;;;;;;;3.17;2.30;;;;;;;;;;5030716;28;20186;-56
2023/12/26 05:17:32;;;;;;;2.27;2.03;;;;;;;;;;5028739;28;20373;-56
2023/12/26 05:20:00;;;;;;;7.60;2.33;;;;;;;;;;5030749;28;20164;-57
2023/12/26 05:22:26;;;;;;;2.37;1.97;;;;;;;;;;5028451;28;20180;-57
2023/12/26 05:24:52;;;;;;;1.90;1.70;;;;;;;;;;5031224;28;20168;-56
2023/12/26 05:27:18;;;;;;;2.80;2.60;;;;;;;;;;5031432;28;20180;-58
2023/12/26 05:29:45;;;;;;;3.63;3.33;;;;;;;;;;5031826;28;20684;-56
2023/12/26 05:32:11;;;;;;;4.00;1.80;;;;;;;;;;5030699;28;20673;-57
2023/12/26 05:34:37;;;;;;;4.03;1.80;;;;;;;;;;5028268;28;20228;-57
2023/12/26 05:37:03;;;;;;;3.60;1.97;;;;;;;;;;5023395;28;20286;-57
2023/12/26 05:39:29;;;;;;;2.17;1.80;;;;;;;;;;5027876;28;20171;-56
2023/12/26 05:41:55;;;;;;;2.93;1.70;;;;;;;;;;5029886;28;20643;-55
2023/12/26 05:44:21;;;;;;;1.67;1.57;;;;;;;;;;5030395;28;20194;-56
2023/12/26 05:46:47;;;;;;;1.80;1.70;;;;;;;;;;5034268;28;20197;-56
2023/12/26 05:49:13;;;;;;;1.70;1.60;;;;;;;;;;5030608;28;20178;-58
2023/12/26 05:51:39;;;;;;;2.10;1.90;;;;;;;;;;5033618;28;20193;-56
2023/12/26 05:54:05;;;;;;;2.07;1.90;;;;;;;;;;5027079;28;20182;-57
2023/12/26 05:56:31;;;;;;;2.40;2.10;;;;;;;;;;5026733;28;20182;-57
2023/12/26 05:58:57;;;;;;;2.90;2.00;;;;;;;;;;5019466;28;20170;-57
2023/12/26 06:01:23;;;;;;;3.20;1.87;;;;;;;;;;5028649;28;20664;-58
2023/12/26 06:03:49;;;;;;;3.43;2.37;;;;;;;;;;5028814;28;20182;-58
2023/12/26 06:06:15;;;;;;;2.37;2.17;;;;;;;;;;5028992;28;20173;-57
2023/12/26 06:08:42;;;;;;;2.67;2.30;;;;;;;;;;5030302;28;20650;-56
2023/12/26 06:11:08;;;;;;;4.57;2.67;;;;;;;;;;5028914;28;20181;-57
2023/12/26 06:13:34;;;;;;;2.93;2.67;;;;;;;;;;5028646;28;20221;-56
2023/12/26 06:16:00;;;;;;;2.37;2.20;;;;;;;;;;5030127;28;20229;-57
2023/12/26 06:18:26;;;;;;;4.23;3.00;;;;;;;;;;5029775;28;20291;-56
2023/12/26 06:20:52;;;;;;;2.83;2.40;;;;;;;;;;5027377;28;20173;-56
2023/12/26 06:23:18;;;;;;;3.27;2.73;;;;;;;;;;5028046;28;20591;-56
2023/12/26 06:25:46;;;;;;;3.27;2.90;;;;;;;;;;5031735;28;20173;-56
2023/12/26 06:28:12;;;;;;;4.77;3.30;;;;;;;;;;5029555;28;20169;-58
2023/12/26 06:30:38;;;;;;;4.47;3.30;;;;;;;;;;5033364;28;20261;-57
2023/12/26 06:33:04;;;;;;;3.30;2.93;;;;;;;;;;5029264;28;20669;-57
2023/12/26 06:35:30;;;;;;;3.97;3.53;;;;;;;;;;5033950;28;20584;-57
2023/12/26 06:37:56;;;;;;;4.57;3.50;;;;;;;;;;5029609;28;20205;-57
2023/12/26 06:40:22;;;;;;;4.47;3.30;;;;;;;;;;5029839;28;20653;-57
2023/12/26 06:42:48;;;;;;;3.87;2.80;;;;;;;;;;5029045;28;20209;-58
2023/12/26 06:45:14;;;;;;;3.30;2.97;;;;;;;;;;5028391;28;20185;-57
2023/12/26 06:47:42;;;;;;;4.33;3.40;;;;;;;;;;5030196;28;20178;-57
2023/12/26 06:50:08;;;;;;;3.20;2.90;;;;;;;;;;5022874;28;20638;-57
2023/12/26 06:52:35;;;;;;;3.50;2.77;;;;;;;;;;5024223;28;20644;-59
2023/12/26 06:55:01;;;;;;;4.97;3.03;;;;;;;;;;5032534;28;20242;-59
2023/12/26 06:57:27;;;;;;;4.43;3.03;;;;;;;;;;5033007;28;20221;-59
2023/12/26 06:59:53;;;;;;;3.77;3.10;;;;;;;;;;5039082;28;20390;-59
2023/12/26 07:02:19;;;;;;;4.23;3.10;;;;;;;;;;5032071;28;20182;-60
2023/12/26 07:04:45;;;;;;;3.00;2.70;;;;;;;;;;5032615;28;20268;-60
2023/12/26 07:07:11;;;;;;;3.47;3.10;;;;;;;;;;5033248;28;20583;-60
2023/12/26 07:09:38;;;;;;;3.90;3.23;;;;;;;;;;5032638;28;20195;-59
2023/12/26 07:12:04;;;;;;;3.63;3.23;;;;;;;;;;5032299;28;20766;-59
2023/12/26 07:14:31;;;;;;;3.70;2.80;;;;;;;;;;5031117;28;20206;-60
2023/12/26 07:16:58;;;;;;;5.77;3.03;;;;;;;;;;5045525;28;20237;-59
2023/12/26 07:19:24;;;;;;;4.80;2.97;;;;;;;;;;5032075;28;20684;-59
2023/12/26 07:21:50;;;;;;;6.20;3.10;;;;;;;;;;5040692;28;20178;-59
2023/12/26 07:24:16;;;;;;;5.27;3.10;;;;;;;;;;5032657;28;20676;-59
2023/12/26 07:26:42;;;;;;;4.57;2.83;;;;;;;;;;5032096;28;20300;-59
2023/12/26 07:29:08;;;;;;;5.10;3.03;;;;;;;;;;5034890;28;20217;-60
2023/12/26 07:31:34;;;;;;;5.17;2.77;;;;;;;;;;5033183;28;20629;-60
2023/12/26 07:34:02;;;;;;;5.83;2.60;;;;;;;;;;5031858;28;20228;-60
2023/12/26 07:36:28;;;;;;;3.83;2.20;;;;;;;;;;5032386;28;20192;-60
2023/12/26 07:38:55;;;;;;;3.20;2.57;;;;;;;;;;5032621;28;20197;-60
2023/12/26 07:41:21;;;;;;;4.97;2.47;;;;;;;;;;5033296;28;20166;-60
2023/12/26 07:43:47;;;;;;;7.13;2.27;;;;;;;;;;5031777;28;20247;-59
2023/12/26 07:46:14;;;;;;;5.10;2.57;;;;;;;;;;5038508;28;20225;-60
2023/12/26 07:48:40;;;;;;;3.73;2.10;;;;;;;;;;5033207;28;20231;-59
2023/12/26 07:51:10;;;;;;;3.43;2.40;;;;;;;;;;5032189;28;20268;-60
2023/12/26 07:53:36;;;;;;;4.43;2.20;;;;;;;;;;5030953;28;20638;-60
2023/12/26 07:56:02;;;;;;;3.20;2.47;;;;;;;;;;5039330;28;20617;-60
2023/12/26 07:58:28;;;;;;;3.57;2.40;;;;;;;;;;5049608;28;20201;-60
2023/12/26 08:00:54;;;;;;;5.50;1.93;;;;;;;;;;5030444;28;20169;-56
2023/12/26 08:03:20;;;;;;;4.47;2.00;;;;;;;;;;5028870;28;20240;-59
2023/12/26 08:05:46;;;;;;;5.67;2.30;;;;;;;;;;5030939;28;20189;-59
2023/12/26 08:08:12;;;;;;;4.47;2.37;;;;;;;;;;5041755;28;20178;-59
2023/12/26 08:10:41;;;;;;;4.37;2.17;;;;;;;;;;5030969;28;20652;-59
2023/12/26 08:13:08;;;;;;;6.40;2.30;;;;;;;;;;5027227;28;20209;-58
2023/12/26 08:15:34;;;;;;;6.73;2.23;;;;;;;;;;5026982;28;20225;-59
2023/12/26 08:18:00;;;;;;;4.23;2.10;;;;;;;;;;5030828;28;20193;-59
2023/12/26 08:20:26;;;;;;;6.13;1.80;;;;;;;;;;5030531;28;20182;-60
2023/12/26 08:22:52;;;;;;;4.73;2.13;;;;;;;;;;5030765;28;20209;-60
2023/12/26 08:25:18;;;;;;;3.90;1.53;;;;;;;;;;5028310;28;20680;-59
2023/12/26 08:27:44;;;;;;;4.50;2.00;;;;;;;;;;5027074;28;20186;-60
2023/12/26 08:30:11;;;;;;;4.17;1.70;;;;;;;;;;5030562;28;20568;-59
2023/12/26 08:32:37;;;;;;;4.33;1.80;;;;;;;;;;5031088;28;20545;-59
2023/12/26 08:35:03;;;;;;;5.90;1.90;;;;;;;;;;5029846;28;20215;-59
2023/12/26 08:37:29;;;;;;;4.37;1.47;;;;;;;;;;5030943;28;20197;-59
2023/12/26 08:39:55;;;;;;;3.67;2.07;;;;;;;;;;5030938;28;20162;-59
2023/12/26 08:42:22;;;;;;;6.57;1.67;;;;;;;;;;5027447;28;20174;-58
2023/12/26 08:44:48;;;;;;;3.67;2.03;;;;;;;;;;5028703;28;20673;-58
2023/12/26 08:47:14;;;;;;;3.87;2.00;;;;;;;;;;5026830;28;20189;-59
2023/12/26 08:49:40;;;;;;;5.73;1.90;;;;;;;;;;5029564;28;20220;-60
2023/12/26 08:52:06;;;;;;;2.53;1.80;;;;;;;;;;5026769;28;20691;-59
2023/12/26 08:54:32;;;;;;;6.73;2.23;;;;;;;;;;5029708;28;20209;-59
2023/12/26 08:56:58;;;;;;;4.57;2.00;;;;;;;;;;5029944;28;20592;-60
2023/12/26 08:59:25;;;;;;;3.07;1.60;;;;;;;;;;5029503;28;20181;-60
2023/12/26 09:01:51;;;;;;;6.53;2.03;;;;;;;;;;5027929;28;20680;-59
2023/12/26 09:04:17;;;;;;;3.57;1.77;;;;;;;;;;5023544;28;20174;-59
2023/12/26 09:06:43;;;;;;;4.10;2.00;;;;;;;;;;5026028;28;20513;-59
2023/12/26 09:09:09;;;;;;;4.67;1.80;;;;;;;;;;5027459;28;20186;-59
2023/12/26 09:11:35;;;;;;;8.43;2.33;;;;;;;;;;5025110;28;20186;-57
2023/12/26 09:14:02;;;;;;;7.67;1.87;;;;;;;;;;5028887;28;20687;-57
2023/12/26 09:16:28;;;;;;;6.47;2.23;;;;;;;;;;5026923;28;20244;-57
2023/12/26 09:18:54;;;;;;;3.83;1.97;;;;;;;;;;5028625;28;20190;-57
2023/12/26 09:21:20;;;;;;;10.23;2.20;;;;;;;;;;5034575;28;20196;-57
2023/12/26 09:23:46;;;;;;;7.50;2.70;;;;;;;;;;5023976;28;20233;-56
2023/12/26 09:26:14;;;;;;;4.33;2.20;;;;;;;;;;5025233;28;20178;-57
2023/12/26 09:28:40;;;;;;;5.87;2.07;;;;;;;;;;5026986;28;20185;-57
2023/12/26 09:31:06;;;;;;;4.53;2.47;;;;;;;;;;5025784;28;20756;-57
2023/12/26 09:33:32;;;;;;;6.80;2.40;;;;;;;;;;5028389;28;20190;-57
2023/12/26 09:35:58;;;;;;;3.43;1.90;;;;;;;;;;5031395;28;20186;-57
2023/12/26 09:38:25;;;;;;;4.53;2.43;;;;;;;;;;5029441;28;20205;-57
2023/12/26 09:40:51;;;;;;;3.83;2.07;;;;;;;;;;5029518;28;20178;-57
2023/12/26 09:43:17;;;;;;;3.60;2.10;;;;;;;;;;5030164;28;20666;-57
2023/12/26 09:45:43;;;;;;;5.43;2.10;;;;;;;;;;5027813;28;20205;-57
2023/12/26 09:48:09;;;;;;;5.50;2.80;;;;;;;;;;5028722;28;20240;-57
2023/12/26 09:50:35;;;;;;;5.73;2.73;;;;;;;;;;5023929;28;20266;-57
2023/12/26 09:53:01;;;;;;;7.53;2.47;;;;;;;;;;5033677;28;20178;-57
2023/12/26 09:55:28;;;;;;;6.07;2.97;;;;;;;;;;5029134;28;20236;-57
2023/12/26 09:57:57;;;;;;;4.30;2.43;;;;;;;;;;5028778;28;20197;-56
2023/12/26 10:00:25;;;;;;;4.57;2.00;;;;;;;;;;5046130;28;20603;-57
2023/12/26 10:02:52;;;;;;;7.50;2.43;;;;;;;;;;5040929;28;20177;-57
2023/12/26 10:05:18;;;;;;;6.80;2.40;;;;;;;;;;5030389;28;20173;-57
2023/12/26 10:07:44;;;;;;;5.27;2.03;;;;;;;;;;5026854;28;20292;-57
2023/12/26 10:10:20;;;;;;;3.47;2.17;;;;;;;;;;5030408;28;20668;-57
2023/12/26 10:12:49;;;;;;;3.90;2.53;;;;;;;;;;5029781;28;20818;-57
2023/12/26 10:15:15;;;;;;;5.83;2.30;;;;;;;;;;5028193;28;20712;-57
2023/12/26 10:17:43;;;;;;;5.30;2.53;;;;;;;;;;5041870;28;20209;-57
2023/12/26 10:20:12;;;;;;;6.43;2.40;;;;;;;;;;5032449;28;20209;-58
2023/12/26 10:22:38;;;;;;;4.83;2.10;;;;;;;;;;5028346;28;20587;-61
2023/12/26 10:25:04;;;;;;;6.87;2.03;;;;;;;;;;5029655;28;20197;-60
2023/12/26 10:27:30;;;;;;;6.17;2.20;;;;;;;;;;5028817;28;20197;-61
2023/12/26 10:29:57;;;;;;;9.73;2.50;;;;;;;;;;5028457;28;20233;-61
2023/12/26 10:32:25;;;;;;;7.83;2.60;;;;;;;;;;5041108;28;20178;-61
2023/12/26 10:34:51;;;;;;;4.83;2.27;;;;;;;;;;5030563;28;20231;-60
2023/12/26 10:37:21;;;;;;;7.57;2.30;;;;;;;;;;5027712;28;20197;-61
2023/12/26 10:39:47;;;;;;;7.23;2.60;;;;;;;;;;5032567;28;20174;-61
2023/12/26 10:42:15;;;;;;;10.13;2.07;;;;;;;;;;5024040;28;20196;-61
2023/12/26 10:45:13;;;;;;;7.57;2.00;;;;;;;;;;5032610;28;20173;-60
2023/12/26 10:47:46;;;;;;;6.77;2.60;;;;;;;;;;5028126;28;20186;-59
2023/12/26 10:50:14;;;;;;;5.57;2.40;;;;;;;;;;5026350;28;20174;-60
2023/12/26 10:52:42;;;;;;;3.40;1.97;;;;;;;;;;5031094;28;20660;-61
2023/12/26 10:55:08;;;;;;;7.10;1.90;;;;;;;;;;5028417;28;20704;-60
2023/12/26 10:57:35;;;;;;;6.30;2.47;;;;;;;;;;5027953;28;20685;-60
2023/12/26 13:51:31;;;;;;;2.10;1.90;;;;;;;;;;5024524;28;20224;-56
2023/12/26 13:53:57;;;;;;;5.43;2.07;;;;;;;;;;5019171;28;20178;-58
2023/12/26 13:56:23;;;;;;;6.93;2.40;;;;;;;;;;5020981;28;20189;-56
2023/12/26 13:58:49;;;;;;;8.70;2.20;;;;;;;;;;5018061;28;20564;-56
2023/12/26 14:01:17;;;;;;;6.77;2.57;;;;;;;;;;5015395;28;20182;-57
2023/12/26 14:03:50;;;;;;;8.77;2.90;;;;;;;;;;5016913;28;20170;-56
2023/12/26 14:06:19;;;;;;;4.17;2.07;;;;;;;;;;5022234;28;20300;-55
2023/12/26 14:08:50;;;;;;;4.77;2.20;;;;;;;;;;5024333;28;20248;-55
2023/12/26 14:11:19;;;;;;;5.83;2.80;;;;;;;;;;5019857;28;20318;-58
2023/12/26 14:13:46;;;;;;;6.67;2.17;;;;;;;;;;5020702;28;20202;-56
2023/12/26 14:16:12;;;;;;;7.97;2.70;;;;;;;;;;5019473;28;22910;-55
2023/12/26 14:18:38;;;;;;;4.33;2.23;;;;;;;;;;5023186;28;20859;-55
2023/12/26 14:21:05;;;;;;;6.60;2.70;;;;;;;;;;5020240;28;20192;-57
2023/12/26 14:23:34;;;;;;;6.03;2.50;;;;;;;;;;5021357;28;20177;-57
2023/12/26 14:26:00;;;;;;;7.63;2.50;;;;;;;;;;5021492;28;20658;-56
2023/12/26 14:28:26;;;;;;;8.50;2.20;;;;;;;;;;5021375;28;20190;-56
2023/12/26 14:30:52;;;;;;;4.13;2.60;;;;;;;;;;5018467;28;20184;-55
2023/12/26 14:33:21;;;;;;;5.20;2.20;;;;;;;;;;5018378;28;20193;-56
2023/12/26 14:35:50;;;;;;;4.63;2.43;;;;;;;;;;5021529;28;20649;-56
2023/12/26 14:38:17;;;;;;;6.87;2.67;;;;;;;;;;5023205;28;20724;-56
2023/12/26 14:40:43;;;;;;;5.43;2.63;;;;;;;;;;5015879;28;20178;-55
2023/12/26 14:43:09;;;;;;;6.87;2.43;;;;;;;;;;5018811;28;20654;-57
2023/12/26 14:45:35;;;;;;;4.90;2.50;;;;;;;;;;5021833;28;20185;-56
2023/12/26 14:48:01;;;;;;;8.10;2.60;;;;;;;;;;5025521;28;20634;-56
2023/12/26 14:50:27;;;;;;;5.47;2.50;;;;;;;;;;5018678;28;20240;-55
2023/12/26 14:52:53;;;;;;;7.23;3.70;;;;;;;;;;5021334;28;20185;-56
2023/12/26 14:55:19;;;;;;;8.47;2.90;;;;;;;;;;5023707;28;20182;-55
2023/12/26 14:57:45;;;;;;;4.03;2.70;;;;;;;;;;5020436;28;20689;-55
2023/12/26 15:00:11;;;;;;;6.67;2.70;;;;;;;;;;5017475;28;20182;-58
2023/12/26 15:02:37;;;;;;;5.70;2.80;;;;;;;;;;5022286;28;20620;-57
2023/12/26 15:05:04;;;;;;;9.23;2.73;;;;;;;;;;5020129;28;20231;-57
2023/12/26 15:07:30;;;;;;;8.70;2.67;;;;;;;;;;5018853;28;20232;-57
2023/12/26 15:09:56;;;;;;;6.93;2.50;;;;;;;;;;5029007;28;20197;-57
2023/12/26 15:12:22;;;;;;;7.10;2.70;;;;;;;;;;5016595;28;20182;-56
2023/12/26 15:14:48;;;;;;;7.23;3.03;;;;;;;;;;5014796;28;20646;-56
2023/12/26 15:17:15;;;;;;;11.87;3.03;;;;;;;;;;5025487;28;20692;-56
2023/12/26 15:19:42;;;;;;;6.70;2.50;;;;;;;;;;5030089;28;20188;-56
2023/12/26 15:22:08;;;;;;;7.17;2.97;;;;;;;;;;5027753;28;20316;-56
2023/12/26 15:24:34;;;;;;;7.90;3.30;;;;;;;;;;5021826;28;20234;-57
2023/12/26 15:27:00;;;;;;;5.13;2.40;;;;;;;;;;5026636;28;20185;-56
2023/12/26 15:29:26;;;;;;;5.13;2.43;;;;;;;;;;5019247;28;20185;-58
2023/12/26 15:31:52;;;;;;;8.80;2.57;;;;;;;;;;5023371;28;20170;-57
2023/12/26 15:34:18;;;;;;;7.10;2.60;;;;;;;;;;5026888;28;20178;-56
2023/12/26 15:36:44;;;;;;;7.50;2.57;;;;;;;;;;5027711;28;20195;-56
2023/12/26 15:39:14;;;;;;;7.53;2.90;;;;;;;;;;5025531;28;20273;-56
2023/12/26 15:41:40;;;;;;;4.43;2.10;;;;;;;;;;5022095;28;20182;-56
2023/12/26 15:44:07;;;;;;;6.57;2.60;;;;;;;;;;5025579;28;20190;-57
2023/12/26 15:46:33;;;;;;;7.97;3.20;;;;;;;;;;5023606;28;20638;-56
2023/12/26 15:49:00;;;;;;;6.10;2.50;;;;;;;;;;5028719;28;20185;-56
2023/12/26 15:51:26;;;;;;;3.77;2.40;;;;;;;;;;5023137;28;20545;-56
2023/12/26 15:53:52;;;;;;;5.77;2.43;;;;;;;;;;5026410;28;20596;-56
2023/12/26 15:56:29;;;;;;;6.60;2.83;;;;;;;;;;5031760;28;20639;-57
2023/12/26 15:58:55;;;;;;;4.80;2.80;;;;;;;;;;5024661;28;20675;-56
2023/12/26 16:01:21;;;;;;;5.53;2.27;;;;;;;;;;5028414;28;20186;-58
2023/12/26 16:03:49;;;;;;;5.57;2.37;;;;;;;;;;5022491;28;20642;-56
2023/12/26 16:06:22;;;;;;;6.60;2.53;;;;;;;;;;5017619;28;20906;-56
2023/12/26 16:08:48;;;;;;;7.07;2.77;;;;;;;;;;5024797;28;20588;-56
2023/12/26 16:11:15;;;;;;;7.50;2.87;;;;;;;;;;5027304;28;20198;-60
2023/12/26 16:13:41;;;;;;;6.47;2.07;;;;;;;;;;5024544;28;20205;-58
2023/12/26 16:16:07;;;;;;;7.27;2.60;;;;;;;;;;5025412;28;20756;-58
2023/12/26 16:18:34;;;;;;;7.63;2.87;;;;;;;;;;5024431;28;20209;-60
2023/12/26 16:21:04;;;;;;;6.07;2.60;;;;;;;;;;5020013;28;20674;-60
2023/12/26 16:23:30;;;;;;;5.37;2.20;;;;;;;;;;5021641;28;20179;-60
2023/12/26 16:25:56;;;;;;;8.20;2.80;;;;;;;;;;5025481;28;20630;-58
2023/12/26 16:28:22;;;;;;;9.70;3.23;;;;;;;;;;5027392;28;20186;-60
2023/12/26 16:30:48;;;;;;;4.37;2.07;;;;;;;;;;5014466;28;20197;-60
2023/12/26 16:33:15;;;;;;;5.23;2.50;;;;;;;;;;5019039;28;20645;-60
2023/12/26 16:35:41;;;;;;;8.53;2.60;;;;;;;;;;5022814;28;20717;-60
2023/12/26 16:38:07;;;;;;;2.60;1.83;;;;;;;;;;5028319;28;20219;-59
2023/12/26 16:40:33;;;;;;;9.80;2.60;;;;;;;;;;5030589;28;20746;-60
2023/12/26 16:42:59;;;;;;;5.73;2.93;;;;;;;;;;5029262;28;20190;-60
2023/12/26 16:45:25;;;;;;;4.43;2.63;;;;;;;;;;5030139;28;20645;-59
2023/12/26 16:47:51;;;;;;;6.40;2.57;;;;;;;;;;5029899;28;20223;-59
2023/12/26 16:50:19;;;;;;;8.43;3.67;;;;;;;;;;5026836;28;20182;-60
2023/12/26 16:52:45;;;;;;;7.63;2.20;;;;;;;;;;5027143;28;20185;-60
2023/12/26 16:55:11;;;;;;;4.60;1.97;;;;;;;;;;5024536;28;20178;-60
2023/12/26 16:57:37;;;;;;;4.03;2.10;;;;;;;;;;5030535;28;20248;-60
2023/12/26 17:00:08;;;;;;;5.20;2.07;;;;;;;;;;5028568;28;20178;-59
2023/12/26 17:02:34;;;;;;;7.70;2.50;;;;;;;;;;5030658;28;20644;-60
2023/12/26 17:05:00;;;;;;;7.30;2.40;;;;;;;;;;5024625;28;20529;-60
2023/12/26 17:07:26;;;;;;;6.37;1.67;;;;;;;;;;5024322;28;20240;-60
2023/12/26 17:09:52;;;;;;;5.30;2.60;;;;;;;;;;5030704;28;20182;-59
2023/12/26 17:12:19;;;;;;;5.10;2.17;;;;;;;;;;5024710;28;20213;-60
2023/12/26 17:14:45;;;;;;;7.75;3.00;;;;;;;;;;5030494;28;20552;-59
2023/12/26 17:17:11;;;;;;;5.10;2.60;;;;;;;;;;5038131;28;20226;-58
2023/12/26 17:19:39;;;;;;;3.13;2.17;;;;;;;;;;5031137;28;20189;-60
2023/12/26 17:22:10;;;;;;;5.30;1.90;;;;;;;;;;5033511;28;20219;-55
2023/12/26 17:25:04;;;;;;;9.07;2.70;;;;;;;;;;5029738;28;20184;-56
2023/12/26 17:27:39;;;;;;;8.27;2.40;;;;;;;;;;5026507;28;20668;-56
2023/12/26 17:30:06;;;;;;;4.80;2.27;;;;;;;;;;5028364;28;20181;-55